Time;durP1;ratioP1;P1;durP2;ratioP2;P2;SDS_P1;SDS_P2;PMS_P1;PMS_P2;Temp;Humidity;BMP_temperature;BMP_pressure;BME280_temperature;BME280_humidity;BME280_pressure;Samples;Min_cycle;Max_cycle;Signal;HPM_P1;HPM_P2
2022/05/04 00:00:51;;;;;;;13.50;4.45;;;10.30;59.10;;;;;;2348551;57;21540;-78
2022/05/04 00:03:18;;;;;;;16.52;4.87;;;10.30;59.60;;;;;;2347907;57;21073;-75
2022/05/04 00:05:46;;;;;;;15.30;4.60;;;10.30;59.10;;;;;;2593439;53;21097;-76
2022/05/04 00:08:13;;;;;;;10.27;4.10;;;10.30;59.10;;;;;;2347728;57;21065;-76
2022/05/04 00:10:40;;;;;;;9.88;4.72;;;10.30;59.10;;;;;;2347039;57;21113;-75
2022/05/04 00:13:08;;;;;;;11.23;4.20;;;10.20;59.00;;;;;;2347708;57;21038;-76
2022/05/04 00:15:36;;;;;;;14.55;4.37;;;10.20;59.40;;;;;;2594909;53;21564;-75
2022/05/04 00:18:04;;;;;;;14.95;3.90;;;10.20;59.40;;;;;;2347266;57;21174;-76
2022/05/04 00:20:31;;;;;;;13.00;4.53;;;10.10;59.50;;;;;;2346859;57;21185;-75
2022/05/04 00:22:59;;;;;;;12.75;5.07;;;10.10;59.60;;;;;;2346878;57;21053;-73
2022/05/04 00:25:26;;;;;;;11.32;3.87;;;10.00;59.60;;;;;;2345213;57;21500;-76
2022/05/04 00:27:54;;;;;;;12.90;4.87;;;10.00;59.70;;;;;;2593112;53;21081;-76
2022/05/04 00:30:21;;;;;;;15.32;4.62;;;10.00;59.60;;;;;;2593791;53;21042;-74
2022/05/04 00:32:48;;;;;;;12.10;4.40;;;10.00;59.40;;;;;;2346838;57;21153;-74
2022/05/04 00:35:15;;;;;;;10.48;4.30;;;10.00;59.30;;;;;;2346044;57;21580;-75
2022/05/04 00:37:43;;;;;;;10.13;5.20;;;10.00;59.30;;;;;;2346274;57;21564;-76
2022/05/04 00:40:11;;;;;;;12.02;4.80;;;10.00;59.20;;;;;;2346948;57;21117;-77
2022/05/04 00:42:39;;;;;;;17.83;5.93;;;10.00;59.10;;;;;;2346031;57;21099;-75
2022/05/04 00:45:07;;;;;;;12.15;5.00;;;9.90;59.00;;;;;;2346607;57;21599;-74
2022/05/04 00:47:35;;;;;;;10.60;4.50;;;9.90;58.90;;;;;;2592942;52;21046;-74
2022/05/04 00:50:04;;;;;;;10.88;4.55;;;9.90;59.10;;;;;;2346539;57;21564;-74
2022/05/04 00:52:32;;;;;;;9.90;4.40;;;9.80;59.40;;;;;;2346721;57;21045;-75
2022/05/04 00:55:00;;;;;;;11.25;4.35;;;9.80;59.40;;;;;;2346434;57;21129;-75
2022/05/04 01:00:18;;;;;;;12.48;5.35;;;9.60;60.40;;;;;;2546662;53;21034;-75
2022/05/04 01:02:45;;;;;;;11.68;5.07;;;9.60;60.50;;;;;;2346465;57;21037;-75
2022/05/04 01:05:13;;;;;;;11.43;4.32;;;9.60;60.60;;;;;;2346602;57;21025;-76
2022/05/04 01:07:42;;;;;;;11.18;4.53;;;9.60;61.30;;;;;;2346007;56;21038;-76
2022/05/04 01:10:12;;;;;;;9.93;4.28;;;9.60;60.30;;;;;;2346734;57;21121;-75
2022/05/04 01:12:47;;;;;;;10.10;4.25;;;9.50;60.30;;;;;;2346531;57;21121;-78
2022/05/04 01:15:15;;;;;;;12.07;4.75;;;9.50;60.20;;;;;;2345978;57;21124;-76
2022/05/04 01:17:43;;;;;;;15.13;5.25;;;9.50;60.10;;;;;;2346085;57;21046;-75
2022/05/04 01:20:12;;;;;;;7.93;4.18;;;9.50;60.00;;;;;;2593477;53;21551;-74
2022/05/04 01:22:39;;;;;;;7.45;4.85;;;9.40;59.90;;;;;;2346683;57;21640;-76
2022/05/04 01:25:08;;;;;;;12.70;4.70;;;9.40;59.80;;;;;;2346343;57;21335;-75
2022/05/04 01:27:35;;;;;;;12.63;5.57;;;9.40;59.90;;;;;;2346212;57;21332;-75
2022/05/04 01:32:39;;;;;;;12.40;5.72;;;9.40;59.90;;;;;;2336472;57;27830;-77
2022/05/04 01:35:07;;;;;;;10.27;4.32;;;8.80;62.60;;;;;;2348456;57;21151;-77
2022/05/04 01:37:35;;;;;;;13.30;4.72;;;9.10;62.00;;;;;;2366743;56;21518;-77
2022/05/04 01:40:02;;;;;;;15.45;4.85;;;9.20;61.20;;;;;;2629890;52;21051;-77
2022/05/04 01:42:29;;;;;;;11.75;4.62;;;9.20;61.50;;;;;;2628469;52;21046;-76
2022/05/04 01:44:57;;;;;;;15.55;4.57;;;9.20;60.60;;;;;;2629564;52;21083;-77
2022/05/04 01:47:24;;;;;;;10.68;4.45;;;9.20;60.60;;;;;;2627844;52;21115;-76
2022/05/04 01:49:51;;;;;;;8.98;4.32;;;9.20;61.30;;;;;;2375005;56;21739;-76
2022/05/04 01:52:18;;;;;;;8.07;4.28;;;9.20;60.70;;;;;;2374972;56;21062;-76
2022/05/04 01:54:46;;;;;;;12.57;4.78;;;9.20;60.70;;;;;;2375214;56;21027;-76
2022/05/04 01:57:13;;;;;;;11.35;4.97;;;9.10;60.70;;;;;;2628595;52;21177;-76
2022/05/04 01:59:41;;;;;;;12.27;4.57;;;9.10;60.70;;;;;;2374361;56;21529;-75
2022/05/04 02:02:08;;;;;;;11.75;4.68;;;9.10;60.60;;;;;;2374820;56;21046;-76
2022/05/04 02:04:37;;;;;;;14.87;4.55;;;9.00;61.00;;;;;;2375127;56;21050;-76
2022/05/04 02:07:07;;;;;;;10.90;4.93;;;9.00;60.20;;;;;;2374931;56;21517;-76
2022/05/04 02:09:35;;;;;;;12.27;5.05;;;9.00;60.00;;;;;;2375139;56;21525;-76
2022/05/04 02:12:04;;;;;;;11.77;5.60;;;9.00;60.10;;;;;;2375458;56;21538;-75
2022/05/04 02:14:32;;;;;;;11.48;4.90;;;9.00;60.20;;;;;;2374430;56;21328;-76
2022/05/04 02:17:00;;;;;;;11.73;4.50;;;8.90;60.10;;;;;;2374722;56;21114;-76
2022/05/04 02:19:27;;;;;;;11.55;4.53;;;8.90;60.20;;;;;;2628479;52;21593;-76
2022/05/04 02:21:54;;;;;;;9.23;4.62;;;8.90;60.10;;;;;;2628907;52;21041;-76
2022/05/04 02:24:21;;;;;;;12.35;5.70;;;8.90;60.30;;;;;;2375339;56;21106;-76
2022/05/04 02:26:49;;;;;;;9.07;4.85;;;8.80;60.40;;;;;;2374573;56;21047;-76
2022/05/04 02:29:16;;;;;;;10.32;5.37;;;8.80;60.70;;;;;;2375361;56;21051;-76
2022/05/04 02:31:43;;;;;;;8.00;4.53;;;8.70;60.80;;;;;;2628118;52;21047;-76
2022/05/04 02:34:10;;;;;;;11.73;4.97;;;8.70;60.80;;;;;;2374962;56;21077;-76
2022/05/04 02:39:27;;;;;;;19.80;6.85;;;8.70;60.80;;;;;;2327791;56;21186;-76
2022/05/04 02:41:55;;;;;;;10.13;5.28;;;8.70;60.60;;;;;;2375304;56;21546;-76
2022/05/04 02:44:22;;;;;;;15.48;5.12;;;8.70;60.50;;;;;;2374070;56;21051;-76
2022/05/04 02:46:49;;;;;;;11.73;5.28;;;8.60;60.70;;;;;;2374093;56;21361;-76
2022/05/04 02:49:17;;;;;;;9.43;5.15;;;8.60;60.60;;;;;;2373547;56;21062;-75
2022/05/04 02:51:44;;;;;;;12.70;5.40;;;8.60;60.80;;;;;;2626611;52;21035;-75
2022/05/04 02:54:12;;;;;;;10.48;5.20;;;8.50;60.80;;;;;;2374245;56;21047;-76
2022/05/04 02:56:39;;;;;;;13.10;5.05;;;8.60;61.00;;;;;;2373637;56;21194;-76
2022/05/04 02:59:06;;;;;;;10.13;5.45;;;8.50;61.10;;;;;;2373248;56;21160;-75
2022/05/04 03:04:19;;;;;;;11.68;5.43;;;8.50;60.90;;;;;;2374338;56;20999;-77
2022/05/04 03:06:47;;;;;;;17.90;6.37;;;8.50;61.20;;;;;;2374189;56;21118;-76
2022/05/04 03:09:14;;;;;;;9.93;5.03;;;8.40;61.40;;;;;;2373887;56;21127;-76
2022/05/04 03:11:56;;;;;;;17.30;6.87;;;8.40;61.60;;;;;;2626736;52;21059;-75
2022/05/04 03:14:24;;;;;;;11.55;5.82;;;8.40;61.90;;;;;;2627564;52;21031;-75
2022/05/04 03:16:52;;;;;;;15.02;6.65;;;8.30;61.90;;;;;;2373465;56;21181;-76
2022/05/04 03:19:20;;;;;;;9.02;5.28;;;8.40;62.20;;;;;;2627323;52;21541;-75
2022/05/04 03:21:48;;;;;;;13.93;6.03;;;8.30;62.60;;;;;;2374154;56;21161;-76
2022/05/04 03:24:15;;;;;;;13.57;5.85;;;8.20;62.60;;;;;;2373970;56;21055;-76
2022/05/04 03:26:43;;;;;;;14.25;5.87;;;8.30;62.90;;;;;;2373716;56;21122;-76
2022/05/04 03:29:11;;;;;;;18.17;7.00;;;8.20;62.90;;;;;;2373647;56;21054;-75
2022/05/04 03:31:39;;;;;;;16.15;6.80;;;8.20;62.80;;;;;;2373957;56;21039;-76
2022/05/04 03:34:06;;;;;;;18.02;7.25;;;8.20;62.80;;;;;;2627433;52;21082;-76
2022/05/04 03:36:35;;;;;;;18.92;8.40;;;8.20;62.90;;;;;;2373711;56;21087;-76
2022/05/04 03:39:04;;;;;;;10.95;6.00;;;8.20;63.00;;;;;;2627315;52;21106;-76
2022/05/04 03:41:34;;;;;;;13.43;6.00;;;8.20;63.00;;;;;;2627076;52;21124;-75
2022/05/04 03:44:02;;;;;;;13.70;6.35;;;8.20;63.10;;;;;;2373623;56;21059;-74
2022/05/04 03:46:40;;;;;;;14.63;6.30;;;8.20;63.20;;;;;;2373720;56;21110;-75
2022/05/04 03:49:08;;;;;;;10.35;5.65;;;8.20;63.30;;;;;;2374022;56;21098;-74
2022/05/04 03:51:35;;;;;;;17.27;6.78;;;8.20;63.60;;;;;;2374182;56;21332;-76
2022/05/04 03:54:03;;;;;;;10.13;5.57;;;8.20;63.60;;;;;;2374169;56;21114;-76
2022/05/04 03:56:30;;;;;;;14.73;6.60;;;8.10;63.50;;;;;;2371879;56;21109;-75
2022/05/04 03:58:58;;;;;;;13.90;6.90;;;8.20;63.40;;;;;;2374112;56;21042;-75
2022/05/04 04:01:25;;;;;;;17.35;7.20;;;8.10;62.60;;;;;;2374253;56;21050;-75
2022/05/04 04:03:52;;;;;;;14.80;6.35;;;8.20;63.50;;;;;;2627405;52;21054;-74
2022/05/04 04:06:19;;;;;;;14.02;6.55;;;8.20;63.60;;;;;;2370945;56;21106;-75
2022/05/04 04:08:47;;;;;;;13.90;6.25;;;8.20;63.80;;;;;;2372115;56;21059;-74
2022/05/04 04:11:14;;;;;;;14.93;6.87;;;8.10;63.90;;;;;;2626607;52;21058;-76
2022/05/04 04:13:41;;;;;;;12.32;6.80;;;8.20;63.80;;;;;;2372943;56;21114;-75
2022/05/04 04:16:08;;;;;;;17.02;7.00;;;8.20;64.00;;;;;;2626440;52;21038;-76
2022/05/04 04:18:36;;;;;;;14.40;7.57;;;8.20;64.30;;;;;;2373157;56;21106;-76
2022/05/04 04:23:49;;;;;;;12.73;7.53;;;8.30;64.80;;;;;;2371905;56;21046;-76
2022/05/04 04:26:17;;;;;;;14.05;6.80;;;8.30;65.20;;;;;;2373238;56;21082;-75
2022/05/04 04:28:44;;;;;;;17.95;7.03;;;8.40;65.40;;;;;;2374279;56;21051;-75
2022/05/04 04:31:12;;;;;;;21.35;7.22;;;8.40;65.70;;;;;;2373354;56;21114;-73
2022/05/04 04:33:40;;;;;;;15.77;7.65;;;8.50;66.00;;;;;;2627295;52;21333;-76
2022/05/04 04:36:09;;;;;;;15.85;7.75;;;8.60;66.10;;;;;;2372954;56;21134;-75
2022/05/04 04:38:36;;;;;;;11.77;6.12;;;8.60;66.10;;;;;;2486584;53;21613;-74
2022/05/04 04:41:04;;;;;;;13.48;6.30;;;8.70;66.40;;;;;;2313079;58;21056;-74
2022/05/04 04:43:31;;;;;;;13.05;6.00;;;8.70;66.60;;;;;;2312899;58;21136;-74
2022/05/04 04:45:59;;;;;;;17.20;6.53;;;8.80;66.70;;;;;;2312141;58;21088;-74
2022/05/04 04:48:26;;;;;;;13.30;5.55;;;8.80;66.70;;;;;;2286809;59;21059;-74
2022/05/04 04:50:54;;;;;;;14.35;6.35;;;8.90;67.00;;;;;;2287289;59;21135;-75
2022/05/04 04:53:21;;;;;;;12.15;6.10;;;9.00;67.00;;;;;;2521594;55;21055;-74
2022/05/04 04:55:48;;;;;;;13.25;6.28;;;9.00;67.20;;;;;;2286273;59;21122;-74
2022/05/04 04:58:16;;;;;;;16.73;4.97;;;9.10;67.50;;;;;;2286427;59;21094;-74
2022/05/04 05:00:43;;;;;;;11.90;5.43;;;9.10;67.30;;;;;;2286265;59;21557;-74
2022/05/04 05:03:11;;;;;;;13.07;5.32;;;9.20;67.30;;;;;;2287332;59;21583;-74
2022/05/04 05:05:42;;;;;;;13.20;5.47;;;9.30;67.40;;;;;;2285062;59;21210;-74
2022/05/04 05:08:10;;;;;;;13.60;5.70;;;9.40;67.20;;;;;;2286188;59;21091;-74
2022/05/04 05:10:38;;;;;;;14.77;6.05;;;9.40;67.00;;;;;;2286194;59;21075;-74
2022/05/04 05:13:05;;;;;;;12.80;5.20;;;9.40;67.10;;;;;;2286552;59;21062;-74
2022/05/04 05:18:20;;;;;;;15.52;5.78;;;9.50;66.90;;;;;;2287124;59;21034;-76
2022/05/04 05:20:47;;;;;;;12.93;5.40;;;9.50;66.70;;;;;;2286770;59;21086;-76
2022/05/04 05:23:15;;;;;;;14.52;5.55;;;9.60;66.80;;;;;;2284292;59;21401;-76
2022/05/04 05:25:42;;;;;;;19.87;5.90;;;9.60;66.80;;;;;;2286133;59;21067;-73
2022/05/04 05:28:09;;;;;;;13.57;5.90;;;9.70;67.00;;;;;;2285754;59;21075;-75
2022/05/04 05:30:37;;;;;;;18.73;5.35;;;9.70;67.00;;;;;;2286639;59;21070;-76
2022/05/04 05:33:04;;;;;;;12.23;5.25;;;9.80;67.10;;;;;;2520764;55;21197;-76
2022/05/04 05:35:31;;;;;;;16.70;6.82;;;9.80;66.80;;;;;;2286266;59;21138;-75
2022/05/04 05:37:59;;;;;;;13.30;4.50;;;9.80;66.20;;;;;;2285700;59;21130;-75
2022/05/04 05:40:27;;;;;;;16.65;6.05;;;9.90;66.00;;;;;;2286495;59;21145;-75
2022/05/04 05:42:54;;;;;;;17.80;6.28;;;10.00;65.70;;;;;;2286126;59;21078;-75
2022/05/04 05:45:21;;;;;;;14.13;5.82;;;9.90;65.50;;;;;;2286732;59;21082;-75
2022/05/04 05:47:48;;;;;;;13.35;6.00;;;10.00;65.70;;;;;;2286683;59;21058;-77
2022/05/04 05:50:17;;;;;;;13.57;5.62;;;10.00;65.60;;;;;;2287131;59;21146;-76
2022/05/04 05:52:44;;;;;;;10.27;4.57;;;10.00;65.40;;;;;;2287118;59;21062;-75
2022/05/04 05:55:12;;;;;;;19.25;6.68;;;10.00;65.20;;;;;;2287013;59;21130;-75
2022/05/04 05:57:39;;;;;;;15.48;5.12;;;10.00;65.30;;;;;;2286727;59;21139;-76
2022/05/04 06:00:09;;;;;;;18.17;5.10;;;10.10;65.10;;;;;;2287170;59;21126;-75
2022/05/04 06:02:37;;;;;;;14.00;4.70;;;10.10;65.00;;;;;;2287040;59;21138;-76
2022/05/04 06:05:05;;;;;;;13.25;3.65;;;10.10;64.80;;;;;;2286911;59;21135;-76
2022/05/04 06:07:33;;;;;;;8.63;3.90;;;10.10;64.70;;;;;;2286421;59;21059;-76
2022/05/04 06:10:00;;;;;;;12.93;4.35;;;10.10;64.60;;;;;;2287285;59;21142;-77
2022/05/04 06:12:27;;;;;;;13.15;4.28;;;10.20;64.20;;;;;;2286513;59;21062;-75
2022/05/04 06:14:54;;;;;;;11.77;4.62;;;10.20;64.00;;;;;;2287043;59;21121;-76
2022/05/04 06:17:22;;;;;;;12.43;3.62;;;10.20;63.70;;;;;;2520997;54;21122;-75
2022/05/04 06:19:49;;;;;;;8.80;3.22;;;10.20;63.00;;;;;;2287076;59;21062;-76
2022/05/04 06:22:17;;;;;;;12.52;3.58;;;10.20;62.90;;;;;;2287425;59;22232;-75
2022/05/04 06:24:45;;;;;;;7.87;2.67;;;10.30;62.50;;;;;;2287497;59;21130;-75
2022/05/04 06:27:13;;;;;;;6.30;2.50;;;10.30;62.40;;;;;;2287171;59;21543;-75
2022/05/04 06:35:11;;;;;;;9.13;2.85;;;10.40;61.40;;;;;;2287607;59;21059;-74
2022/05/04 06:37:39;;;;;;;9.95;3.35;;;10.40;61.30;;;;;;2287430;59;21075;-75
2022/05/04 06:40:09;;;;;;;7.10;2.62;;;10.40;61.40;;;;;;2286420;59;21067;-74
2022/05/04 06:42:39;;;;;;;8.02;2.65;;;10.50;61.10;;;;;;2287309;59;21078;-74
2022/05/04 06:45:09;;;;;;;11.52;3.08;;;10.50;60.90;;;;;;2287073;59;21076;-74
2022/05/04 06:47:36;;;;;;;9.43;2.20;;;10.50;60.40;;;;;;2287389;59;21206;-74
2022/05/04 06:50:05;;;;;;;12.95;2.42;;;10.60;59.60;;;;;;2287814;59;21063;-74
2022/05/04 06:52:33;;;;;;;8.23;2.10;;;10.60;59.40;;;;;;2287501;59;21074;-78
2022/05/04 06:55:00;;;;;;;8.30;2.30;;;10.60;59.00;;;;;;2287470;59;21079;-74
2022/05/04 06:57:28;;;;;;;9.35;2.47;;;10.60;59.20;;;;;;2286040;59;21090;-74
2022/05/04 06:59:55;;;;;;;4.22;1.92;;;10.60;58.90;;;;;;2287088;59;21118;-75
2022/05/04 07:02:22;;;;;;;7.30;2.03;;;10.60;58.80;;;;;;2287610;59;21059;-74
2022/05/04 07:04:49;;;;;;;4.07;1.70;;;10.70;58.40;;;;;;2287432;59;21051;-75
2022/05/04 07:07:16;;;;;;;6.47;2.60;;;10.70;58.50;;;;;;2286919;59;21127;-73
2022/05/04 07:09:44;;;;;;;4.78;1.95;;;10.80;58.10;;;;;;2520954;55;21047;-74
2022/05/04 07:12:11;;;;;;;5.57;1.98;;;10.90;58.50;;;;;;2286677;59;21448;-73
2022/05/04 07:14:39;;;;;;;12.15;2.33;;;10.90;58.30;;;;;;2286816;59;21054;-73
2022/05/04 07:17:06;;;;;;;9.63;2.10;;;11.00;58.10;;;;;;2286270;59;21166;-75
2022/05/04 07:19:33;;;;;;;12.48;2.67;;;11.10;58.40;;;;;;2287306;59;21215;-74
2022/05/04 07:22:01;;;;;;;10.85;2.42;;;11.20;57.60;;;;;;2286915;59;21133;-74
2022/05/04 07:24:28;;;;;;;9.20;2.90;;;11.20;57.60;;;;;;2287104;59;21086;-73
2022/05/04 07:26:55;;;;;;;7.60;2.00;;;11.30;56.90;;;;;;2286583;59;21078;-74
2022/05/04 07:29:22;;;;;;;9.18;2.45;;;11.40;56.70;;;;;;2286929;59;22224;-75
2022/05/04 07:31:50;;;;;;;8.57;2.10;;;11.40;57.00;;;;;;2287068;59;21620;-74
2022/05/04 07:34:17;;;;;;;22.02;2.25;;;11.40;56.60;;;;;;2286453;59;21616;-76
2022/05/04 07:36:45;;;;;;;6.85;2.37;;;11.50;56.50;;;;;;2286857;59;21676;-75
2022/05/04 07:42:21;;;;;;;7.12;1.77;;;11.60;56.90;;;;;;2286614;59;21082;-74
2022/05/04 07:45:00;;;;;;;6.43;1.65;;;11.60;56.20;;;;;;2286861;59;21142;-75
2022/05/04 07:47:28;;;;;;;6.10;1.90;;;11.70;54.90;;;;;;2286502;59;21356;-73
2022/05/04 07:49:56;;;;;;;7.03;1.98;;;11.70;55.20;;;;;;2520589;55;21561;-73
2022/05/04 07:52:24;;;;;;;7.37;1.75;;;11.70;55.60;;;;;;2286528;59;21059;-74
2022/05/04 07:54:51;;;;;;;6.80;1.80;;;11.80;55.40;;;;;;2286994;59;21126;-74
2022/05/04 07:57:19;;;;;;;9.10;2.00;;;11.80;55.00;;;;;;2520220;54;21115;-75
2022/05/04 08:04:16;;;;;;;11.82;2.28;;;11.90;55.20;;;;;;2521073;55;21154;-75
2022/05/04 08:07:00;;;;;;;4.55;1.62;;;11.90;54.90;;;;;;2286462;59;21059;-73
2022/05/04 08:09:27;;;;;;;6.57;1.90;;;12.00;54.90;;;;;;2286714;58;21078;-74
2022/05/04 08:11:54;;;;;;;6.62;2.12;;;12.00;54.90;;;;;;2286385;59;21114;-73
2022/05/04 08:14:24;;;;;;;9.30;2.37;;;12.00;54.80;;;;;;2286446;59;21122;-74
2022/05/04 08:16:51;;;;;;;7.32;2.05;;;12.00;54.70;;;;;;2286067;59;21137;-76
2022/05/04 08:19:18;;;;;;;10.10;2.30;;;12.10;54.60;;;;;;2286290;59;21066;-74
2022/05/04 08:21:46;;;;;;;8.68;2.25;;;12.10;54.90;;;;;;2286460;59;21165;-74
2022/05/04 08:24:13;;;;;;;8.43;2.40;;;12.10;54.50;;;;;;2286251;59;21130;-73
2022/05/04 08:26:40;;;;;;;9.35;2.65;;;12.10;54.90;;;;;;2520571;54;21146;-75
2022/05/04 08:29:07;;;;;;;8.50;1.85;;;12.30;54.90;;;;;;2286731;59;21145;-73
2022/05/04 08:31:36;;;;;;;8.20;2.15;;;12.30;54.30;;;;;;2520244;55;21063;-74
2022/05/04 08:34:03;;;;;;;5.25;2.17;;;12.30;54.10;;;;;;2285300;59;21193;-74
2022/05/04 08:36:30;;;;;;;6.53;2.12;;;12.40;54.10;;;;;;2284986;59;21086;-73
2022/05/04 08:38:58;;;;;;;8.38;2.15;;;12.30;53.80;;;;;;2286512;59;21146;-74
2022/05/04 08:41:26;;;;;;;8.88;2.20;;;12.40;53.70;;;;;;2286492;59;21091;-73
2022/05/04 08:43:56;;;;;;;9.10;2.42;;;12.40;53.70;;;;;;2286642;59;21067;-75
2022/05/04 08:46:25;;;;;;;9.90;2.55;;;12.40;53.90;;;;;;2286520;59;21110;-73
2022/05/04 08:48:53;;;;;;;6.00;1.90;;;12.40;53.80;;;;;;2286536;59;21134;-73
2022/05/04 08:51:21;;;;;;;5.60;2.28;;;12.40;54.10;;;;;;2286595;59;21086;-73
2022/05/04 08:53:49;;;;;;;13.77;2.40;;;12.50;54.10;;;;;;2285511;59;21149;-76
2022/05/04 08:56:17;;;;;;;10.98;1.95;;;12.50;54.10;;;;;;2285734;59;21106;-72
2022/05/04 08:58:44;;;;;;;9.65;2.33;;;12.50;53.70;;;;;;2520636;55;21142;-74
2022/05/04 09:01:12;;;;;;;15.27;2.60;;;12.50;53.80;;;;;;2520438;55;21062;-73
2022/05/04 09:03:40;;;;;;;5.40;2.50;;;12.60;53.50;;;;;;2286612;59;21063;-73
2022/05/04 09:06:08;;;;;;;13.20;2.30;;;12.60;53.40;;;;;;2286708;59;21059;-73
2022/05/04 09:08:54;;;;;;;8.30;2.55;;;12.60;53.70;;;;;;2286537;59;21146;-74
2022/05/04 09:11:22;;;;;;;4.87;2.67;;;12.60;53.70;;;;;;2286900;59;21573;-74
2022/05/04 09:13:51;;;;;;;6.82;1.80;;;12.70;53.50;;;;;;2287233;59;21059;-74
2022/05/04 09:16:27;;;;;;;7.28;2.78;;;12.70;52.90;;;;;;2286578;59;21150;-74
2022/05/04 09:18:55;;;;;;;7.85;2.47;;;12.80;52.90;;;;;;2287204;59;21071;-73
2022/05/04 09:21:23;;;;;;;6.30;2.42;;;12.80;53.00;;;;;;2286204;59;21149;-74
2022/05/04 09:23:53;;;;;;;5.97;2.12;;;12.80;53.00;;;;;;2521196;55;21063;-74
2022/05/04 09:26:22;;;;;;;6.93;2.42;;;12.80;53.10;;;;;;2518988;54;21074;-74
2022/05/04 09:28:57;;;;;;;6.12;2.10;;;12.90;53.20;;;;;;2286862;59;21075;-75
2022/05/04 09:31:26;;;;;;;9.02;2.60;;;13.00;53.50;;;;;;2287055;59;21083;-74
2022/05/04 09:33:54;;;;;;;8.02;2.17;;;13.00;52.80;;;;;;2287129;59;21589;-73
2022/05/04 09:36:33;;;;;;;7.20;1.98;;;13.10;52.90;;;;;;2286813;59;21074;-73
2022/05/04 09:45:08;;;;;;;6.35;2.03;;;13.40;52.50;;;;;;2285718;59;21062;-76
2022/05/04 09:47:38;;;;;;;6.35;2.00;;;13.50;52.00;;;;;;2286761;59;21142;-73
2022/05/04 09:50:08;;;;;;;9.32;2.35;;;13.60;52.10;;;;;;2287003;59;21082;-73
2022/05/04 09:52:42;;;;;;;7.87;2.50;;;13.60;51.70;;;;;;2287039;59;21652;-75
2022/05/04 09:55:15;;;;;;;;;;;13.70;51.80;;;;;;2290626;59;22401;-73
2022/05/04 09:57:43;;;;;;;6.12;2.25;;;13.80;51.50;;;;;;2521881;54;20081;-74
2022/05/04 10:02:49;;;;;;;6.15;2.30;;;13.80;50.40;;;;;;2355901;57;22572;-73
2022/05/04 10:05:17;;;;;;;8.13;2.35;;;13.90;50.60;;;;;;2347156;57;21120;-73
2022/05/04 10:07:45;;;;;;;5.65;1.92;;;13.90;50.70;;;;;;2620303;52;21039;-75
2022/05/04 10:10:14;;;;;;;5.05;2.30;;;13.90;50.80;;;;;;2374866;56;21321;-75
2022/05/04 10:12:43;;;;;;;7.18;2.17;;;14.00;51.10;;;;;;2375013;56;21058;-75
2022/05/04 10:15:12;;;;;;;5.95;1.87;;;14.10;51.20;;;;;;2374408;56;21051;-73
2022/05/04 10:17:44;;;;;;;9.35;1.98;;;14.20;51.30;;;;;;2373852;56;21176;-74
2022/05/04 10:20:15;;;;;;;7.30;1.87;;;14.20;50.80;;;;;;2374718;56;21043;-75
2022/05/04 10:22:49;;;;;;;6.82;2.10;;;14.30;50.30;;;;;;2374983;56;21035;-73
2022/05/04 10:25:18;;;;;;;6.80;3.40;;;14.40;50.30;;;;;;2374749;56;21067;-76
2022/05/04 10:27:46;;;;;;;6.22;2.50;;;14.50;49.90;;;;;;2375044;56;21114;-73
2022/05/04 10:30:34;;;;;;;9.20;2.95;;;14.50;49.40;;;;;;2374487;56;21059;-73
2022/05/04 10:33:05;;;;;;;8.07;2.30;;;14.50;49.30;;;;;;2374034;56;21047;-73
2022/05/04 10:35:41;;;;;;;6.97;2.08;;;14.60;49.60;;;;;;2374574;56;21058;-73
2022/05/04 10:38:15;;;;;;;5.60;1.80;;;14.70;49.50;;;;;;2628809;52;21115;-74
2022/05/04 10:40:50;;;;;;;9.15;2.45;;;14.80;49.70;;;;;;2374875;56;21059;-72
2022/05/04 10:43:33;;;;;;;4.18;1.70;;;14.90;49.10;;;;;;2374944;56;21589;-72
2022/05/04 10:46:09;;;;;;;5.20;1.93;;;15.00;48.80;;;;;;2374928;56;21055;-72
2022/05/04 10:48:41;;;;;;;9.40;3.22;;;15.10;49.00;;;;;;2374798;56;21102;-71
2022/05/04 10:51:18;;;;;;;5.35;2.62;;;15.20;49.10;;;;;;2373627;56;21027;-72
2022/05/04 10:53:48;;;;;;;6.18;2.28;;;15.30;49.40;;;;;;2628664;52;21035;-74
2022/05/04 10:56:18;;;;;;;9.77;2.75;;;15.40;48.90;;;;;;2374120;56;21108;-72
2022/05/04 10:58:53;;;;;;;8.15;2.60;;;15.50;49.00;;;;;;2628713;52;21027;-72
2022/05/04 11:01:22;;;;;;;4.60;2.40;;;15.60;48.70;;;;;;2374831;56;21051;-72
2022/05/04 11:03:54;;;;;;;6.05;2.35;;;15.70;48.40;;;;;;2374840;56;21086;-74
2022/05/04 11:06:27;;;;;;;6.00;1.90;;;15.80;48.10;;;;;;2626604;52;21106;-72
2022/05/04 11:08:56;;;;;;;5.03;1.97;;;15.80;47.80;;;;;;2375230;56;21139;-73
2022/05/04 11:11:25;;;;;;;8.35;2.30;;;15.90;48.10;;;;;;2628650;52;21023;-73
2022/05/04 11:13:53;;;;;;;6.50;2.42;;;16.00;48.20;;;;;;2373881;56;21113;-76
2022/05/04 11:16:22;;;;;;;9.85;2.15;;;16.20;47.90;;;;;;2373699;56;21058;-76
2022/05/04 11:18:50;;;;;;;4.95;2.37;;;16.30;47.70;;;;;;2374079;56;21114;-76
2022/05/04 11:21:18;;;;;;;9.45;4.37;;;16.40;47.30;;;;;;2373131;56;21134;-77
2022/05/04 11:23:50;;;;;;;16.30;4.40;;;16.60;46.60;;;;;;2373109;56;21122;-74
2022/05/04 11:26:19;;;;;;;5.72;2.70;;;16.50;45.60;;;;;;2373160;56;21648;-75
2022/05/04 11:28:47;;;;;;;6.60;2.50;;;16.50;45.50;;;;;;2373698;56;21154;-74
2022/05/04 11:31:14;;;;;;;6.72;2.42;;;16.50;45.40;;;;;;2373465;56;21051;-74
2022/05/04 11:33:43;;;;;;;10.25;2.55;;;16.60;45.40;;;;;;2373023;56;21086;-73
2022/05/04 11:36:11;;;;;;;7.03;2.20;;;16.60;45.40;;;;;;2372185;56;21094;-74
2022/05/04 11:38:39;;;;;;;6.87;2.30;;;16.60;45.20;;;;;;2374074;56;21035;-74
2022/05/04 11:41:08;;;;;;;6.53;2.05;;;16.60;45.20;;;;;;2372960;56;21177;-75
2022/05/04 11:43:36;;;;;;;5.85;2.33;;;16.60;45.40;;;;;;2373808;56;21090;-74
2022/05/04 11:46:07;;;;;;;7.47;2.47;;;16.60;45.30;;;;;;2372775;56;21613;-75
2022/05/04 11:48:36;;;;;;;8.05;3.15;;;16.60;44.70;;;;;;2627011;52;21043;-75
2022/05/04 11:51:04;;;;;;;6.03;2.37;;;16.80;44.50;;;;;;2373029;56;21127;-76
2022/05/04 11:53:34;;;;;;;4.47;2.10;;;16.90;45.10;;;;;;2625715;52;21047;-75
2022/05/04 11:56:03;;;;;;;7.57;2.42;;;17.10;44.80;;;;;;2373023;56;21625;-75
2022/05/04 11:58:32;;;;;;;5.80;2.20;;;17.20;44.90;;;;;;2373514;56;21123;-74
2022/05/04 12:01:00;;;;;;;8.68;2.72;;;17.20;44.40;;;;;;2373059;56;21027;-74
2022/05/04 12:03:29;;;;;;;10.07;2.20;;;17.30;44.60;;;;;;2373153;56;21105;-75
2022/05/04 12:05:57;;;;;;;7.37;2.33;;;17.30;45.00;;;;;;2373153;56;21043;-75
2022/05/04 12:08:25;;;;;;;8.50;2.62;;;17.50;44.80;;;;;;2373951;56;21118;-77
2022/05/04 12:10:57;;;;;;;7.47;2.50;;;17.60;44.20;;;;;;2373604;56;21135;-75
2022/05/04 12:13:26;;;;;;;4.20;2.00;;;17.70;43.60;;;;;;2626988;52;21047;-76
2022/05/04 12:15:56;;;;;;;5.93;2.40;;;17.80;43.60;;;;;;2373196;56;21169;-74
2022/05/04 12:18:28;;;;;;;6.60;2.70;;;17.90;43.60;;;;;;2373519;56;21193;-74
2022/05/04 12:20:55;;;;;;;6.95;2.58;;;18.10;43.30;;;;;;2373031;56;21047;-78
2022/05/04 12:23:23;;;;;;;9.20;2.85;;;18.20;43.20;;;;;;2373938;56;21035;-75
2022/05/04 12:25:51;;;;;;;7.50;2.62;;;18.40;43.20;;;;;;2372962;56;21106;-76
2022/05/04 12:28:18;;;;;;;7.80;2.67;;;18.40;42.40;;;;;;2373626;56;21561;-75
2022/05/04 12:33:33;;;;;;;8.23;2.72;;;18.50;42.10;;;;;;2373905;56;21647;-75
2022/05/04 12:36:04;;;;;;;6.87;3.28;;;18.50;41.40;;;;;;2373042;56;21027;-74
2022/05/04 12:38:33;;;;;;;4.80;2.20;;;18.60;41.30;;;;;;2373079;56;21094;-75
2022/05/04 12:41:01;;;;;;;9.63;2.53;;;18.70;41.60;;;;;;2372151;56;21063;-74
2022/05/04 12:43:32;;;;;;;7.30;2.58;;;18.80;41.50;;;;;;2374040;56;21114;-73
2022/05/04 12:46:00;;;;;;;5.55;2.58;;;18.80;41.50;;;;;;2373454;56;21086;-73
2022/05/04 12:48:27;;;;;;;6.20;2.45;;;18.80;41.40;;;;;;2373726;56;21051;-73
2022/05/04 12:50:57;;;;;;;5.37;2.20;;;18.80;40.80;;;;;;2373597;56;21079;-74
2022/05/04 12:53:25;;;;;;;4.40;2.30;;;18.90;41.60;;;;;;2373796;56;21106;-73
2022/05/04 12:58:40;;;;;;;6.07;2.60;;;18.90;39.90;;;;;;2373315;56;21019;-74
2022/05/04 13:01:07;;;;;;;8.05;3.53;;;18.80;39.60;;;;;;2373273;56;21126;-76
2022/05/04 13:03:35;;;;;;;9.32;2.67;;;18.70;40.00;;;;;;2626846;52;21083;-73
2022/05/04 13:06:03;;;;;;;6.40;2.90;;;18.70;40.70;;;;;;2373143;56;21051;-74
2022/05/04 13:08:30;;;;;;;3.97;2.40;;;18.70;40.20;;;;;;2373901;56;21117;-74
2022/05/04 13:10:58;;;;;;;6.97;2.20;;;18.60;40.90;;;;;;2373450;56;21043;-77
2022/05/04 13:13:26;;;;;;;10.70;2.80;;;18.70;41.00;;;;;;2626285;52;21031;-78
2022/05/04 13:15:53;;;;;;;6.72;2.40;;;18.80;40.50;;;;;;2373351;56;21494;-76
2022/05/04 13:18:21;;;;;;;6.20;2.47;;;18.80;40.70;;;;;;2373324;56;21066;-76
2022/05/04 13:20:49;;;;;;;13.50;2.72;;;18.90;41.40;;;;;;2373925;56;21099;-77
2022/05/04 13:23:17;;;;;;;6.57;2.80;;;19.00;41.50;;;;;;2373659;56;21624;-76
2022/05/04 13:25:44;;;;;;;4.87;2.45;;;19.00;41.30;;;;;;2373572;56;21573;-75
2022/05/04 13:28:11;;;;;;;8.27;2.78;;;19.00;40.50;;;;;;2373310;56;21597;-76
2022/05/04 13:30:38;;;;;;;7.18;2.65;;;19.00;41.70;;;;;;2373244;56;21027;-76
2022/05/04 13:33:06;;;;;;;5.87;2.58;;;19.10;41.20;;;;;;2373547;56;21051;-76
2022/05/04 13:35:33;;;;;;;9.32;2.90;;;19.10;40.20;;;;;;2373401;56;21106;-76